createdAt,value
2018-02-21T00:00:38.325Z,87.50
2018-02-21T00:01:38.273Z,99.10
2018-02-21T00:02:38.267Z,106.40
2018-02-21T00:03:38.252Z,103.30
2018-02-21T00:04:38.246Z,104.50
2018-02-21T00:05:38.272Z,115.30
2018-02-21T00:06:38.225Z,133.10
2018-02-21T00:07:38.213Z,132.40
2018-02-21T00:08:38.215Z,125.70
2018-02-21T00:09:38.237Z,112.50
2018-02-21T00:10:38.183Z,107.20
2018-02-21T00:11:38.174Z,96.90
2018-02-21T00:12:38.163Z,110.30
2018-02-21T00:13:38.154Z,103.50
2018-02-21T00:14:38.201Z,103.60
2018-02-21T00:15:38.135Z,112.80
2018-02-21T00:16:38.122Z,92.20
2018-02-21T00:17:38.114Z,111.00
2018-02-21T00:18:38.104Z,113.40
2018-02-21T00:19:38.151Z,109.30
2018-02-21T00:20:38.084Z,94.80
2018-02-21T00:21:38.074Z,105.70
2018-02-21T00:22:38.125Z,86.20
2018-02-21T00:23:38.051Z,113.50
2018-02-21T00:24:38.083Z,106.10
2018-02-21T00:25:38.032Z,94.20
2018-02-21T00:26:38.021Z,116.80
2018-02-21T00:27:38.016Z,117.00
2018-02-21T00:28:37.999Z,100.70
2018-02-21T00:29:38.031Z,89.10
2018-02-21T00:30:37.984Z,102.00
2018-02-21T00:31:37.969Z,80.30
2018-02-21T00:32:37.962Z,97.90
2018-02-21T00:33:37.947Z,98.00
2018-02-21T00:34:37.977Z,98.90
2018-02-21T00:35:37.929Z,84.90
2018-02-21T00:36:37.922Z,85.30
2018-02-21T00:37:37.914Z,86.20
2018-02-21T00:38:37.898Z,81.00
2018-02-21T00:39:37.940Z,91.00
2018-02-21T00:40:37.880Z,101.30
2018-02-21T00:41:37.871Z,84.70
2018-02-21T00:42:37.859Z,107.00
2018-02-21T00:43:37.855Z,82.50
2018-02-21T00:44:37.838Z,102.70
2018-02-21T00:45:37.883Z,104.70
2018-02-21T00:46:37.817Z,98.80
2018-02-21T00:47:37.807Z,93.50
2018-02-21T00:48:37.794Z,111.80
2018-02-21T00:49:37.825Z,117.00
2018-02-21T00:50:37.775Z,92.00
2018-02-21T00:51:37.807Z,103.90
2018-02-21T00:52:37.769Z,82.60
2018-02-21T00:53:37.744Z,95.40
2018-02-21T00:54:37.732Z,100.80
2018-02-21T00:55:37.764Z,99.50
2018-02-21T00:56:37.713Z,110.40
2018-02-21T00:57:37.701Z,101.60
2018-02-21T00:58:37.690Z,92.40
2018-02-21T00:59:37.679Z,94.80
2018-02-21T01:00:37.726Z,85.40
2018-02-21T01:01:37.667Z,119.70
2018-02-21T01:02:37.650Z,130.60
2018-02-21T01:03:37.641Z,112.90
2018-02-21T01:04:37.669Z,91.90
2018-02-21T01:05:37.654Z,89.10
2018-02-21T01:06:37.609Z,91.90
2018-02-21T01:07:37.596Z,105.20
2018-02-21T01:08:37.584Z,91.10
2018-02-21T01:09:37.577Z,97.10
2018-02-21T01:10:37.609Z,86.80
2018-02-21T01:11:37.552Z,86.40
2018-02-21T01:12:37.543Z,93.40
2018-02-21T01:13:37.532Z,87.70
2018-02-21T01:14:37.526Z,93.80
2018-02-21T01:15:37.553Z,99.00
2018-02-21T01:16:37.501Z,104.20
2018-02-21T01:17:37.495Z,103.40
2018-02-21T01:18:37.480Z,116.60
2018-02-21T01:19:37.471Z,98.10
2018-02-21T01:20:37.496Z,107.50
2018-02-21T01:21:37.447Z,115.80
2018-02-21T01:22:37.447Z,108.50
2018-02-21T01:23:37.435Z,94.10
2018-02-21T01:24:37.415Z,92.40
2018-02-21T01:25:37.445Z,90.10
2018-02-21T01:26:37.394Z,95.30
2018-02-21T01:27:37.384Z,95.50
2018-02-21T01:28:37.426Z,83.70
2018-02-21T01:29:37.367Z,78.20
2018-02-21T01:30:37.439Z,79.00
2018-02-21T01:31:37.372Z,78.00
2018-02-21T01:32:37.337Z,74.90
2018-02-21T01:33:37.364Z,85.00
2018-02-21T01:34:37.312Z,81.70
2018-02-21T01:35:37.297Z,92.90
2018-02-21T01:36:37.330Z,109.30
2018-02-21T01:37:37.279Z,107.00
2018-02-21T01:38:37.264Z,104.80
2018-02-21T01:39:37.255Z,102.30
2018-02-21T01:40:37.313Z,78.90
2018-02-21T01:41:37.235Z,89.40
2018-02-21T01:42:37.227Z,87.10
2018-02-21T01:43:37.211Z,67.30
2018-02-21T01:44:37.204Z,79.60
2018-02-21T01:45:37.193Z,55.90
2018-02-21T01:46:37.239Z,70.50
2018-02-21T01:47:37.171Z,76.10
2018-02-21T01:48:37.199Z,85.90
2018-02-21T01:49:37.151Z,66.90
2018-02-21T01:50:37.139Z,80.20
2018-02-21T01:51:37.129Z,83.60
2018-02-21T01:52:37.155Z,78.20
2018-02-21T01:53:37.105Z,80.70
2018-02-21T01:54:37.094Z,80.50
2018-02-21T01:55:37.082Z,71.70
2018-02-21T01:56:37.071Z,82.30
2018-02-21T01:57:37.122Z,83.10
2018-02-21T01:58:37.093Z,79.50
2018-02-21T01:59:37.041Z,73.90
2018-02-21T02:00:37.032Z,75.10
2018-02-21T02:01:37.069Z,71.20
2018-02-21T02:02:37.008Z,76.10
2018-02-21T02:03:36.996Z,74.60
2018-02-21T02:04:36.986Z,69.80
2018-02-21T02:05:36.976Z,75.40
2018-02-21T02:06:36.967Z,83.90
2018-02-21T02:07:36.999Z,69.20
2018-02-21T02:08:36.947Z,83.30
2018-02-21T02:09:36.934Z,87.30
2018-02-21T02:10:36.922Z,83.10
2018-02-21T02:11:36.952Z,85.70
2018-02-21T02:12:36.901Z,89.20
2018-02-21T02:13:36.892Z,87.10
2018-02-21T02:14:36.880Z,95.20
2018-02-21T02:15:36.867Z,97.60
2018-02-21T02:16:36.915Z,99.60
2018-02-21T02:17:36.847Z,88.80
2018-02-21T02:18:36.871Z,88.30
2018-02-21T02:19:37.339Z,83.50
2018-02-21T02:20:36.814Z,81.40
2018-02-21T02:21:36.805Z,79.90
2018-02-21T02:22:36.829Z,90.50
2018-02-21T02:23:36.784Z,87.60
2018-02-21T02:24:36.773Z,94.90
2018-02-21T02:25:36.761Z,113.40
2018-02-21T02:26:36.750Z,107.00
2018-02-21T02:27:36.779Z,93.70
2018-02-21T02:28:36.726Z,93.40
2018-02-21T02:29:36.714Z,82.00
2018-02-21T02:30:37.393Z,78.10
2018-02-21T02:31:36.694Z,74.10
2018-02-21T02:32:36.727Z,75.90
2018-02-21T02:33:36.675Z,70.20
2018-02-21T02:34:36.661Z,73.30
2018-02-21T02:35:36.649Z,66.50
2018-02-21T02:36:36.642Z,75.70
2018-02-21T02:37:36.686Z,79.80
2018-02-21T02:38:36.623Z,75.80
2018-02-21T02:39:36.609Z,82.20
2018-02-21T02:40:36.594Z,79.00
2018-02-21T02:41:36.586Z,76.60
2018-02-21T02:42:36.573Z,75.00
2018-02-21T02:43:36.608Z,75.20
2018-02-21T02:44:36.554Z,70.80
2018-02-21T02:45:36.545Z,75.50
2018-02-21T02:46:36.530Z,65.60
2018-02-21T02:47:36.516Z,70.90
2018-02-21T02:48:36.549Z,76.90
2018-02-21T02:49:36.497Z,81.70
2018-02-21T02:50:36.493Z,80.80
2018-02-21T02:51:36.474Z,65.70
2018-02-21T02:52:37.430Z,75.10
2018-02-21T02:53:36.455Z,69.50
2018-02-21T02:54:36.445Z,64.10
2018-02-21T02:55:36.432Z,68.50
2018-02-21T02:56:36.422Z,68.50
2018-02-21T02:57:36.447Z,71.60
2018-02-21T02:58:36.399Z,71.40
2018-02-21T02:59:36.387Z,68.70
2018-02-21T03:00:36.375Z,70.30
2018-02-21T03:01:36.366Z,80.50
2018-02-21T03:02:36.396Z,75.70
2018-02-21T03:03:36.342Z,83.10
2018-02-21T03:04:36.334Z,72.10
2018-02-21T03:05:36.322Z,71.40
2018-02-21T03:06:36.310Z,68.30
2018-02-21T03:07:36.334Z,81.40
2018-02-21T03:08:36.286Z,70.70
2018-02-21T03:09:36.281Z,74.30
2018-02-21T03:10:36.265Z,72.90
2018-02-21T03:11:36.256Z,74.60
2018-02-21T03:12:36.283Z,77.80
2018-02-21T03:13:36.237Z,71.10
2018-02-21T03:14:36.218Z,64.10
2018-02-21T03:15:36.209Z,58.70
2018-02-21T03:16:36.201Z,71.90
2018-02-21T03:17:36.225Z,64.00
2018-02-21T03:18:36.177Z,76.40
2018-02-21T03:19:36.165Z,71.60
2018-02-21T03:20:36.158Z,76.50
2018-02-21T03:21:36.144Z,65.20
2018-02-21T03:22:36.230Z,84.90
2018-02-21T03:23:36.120Z,86.60
2018-02-21T03:24:36.110Z,72.60
2018-02-21T03:25:36.099Z,69.60
2018-02-21T03:26:36.088Z,76.80
2018-02-21T03:27:36.130Z,70.50
2018-02-21T03:28:36.065Z,80.40
2018-02-21T03:29:36.053Z,69.70
2018-02-21T03:30:36.048Z,62.40
2018-02-21T03:31:36.035Z,72.60
2018-02-21T03:32:36.020Z,68.30
2018-02-21T03:33:36.051Z,76.20
2018-02-21T03:34:36.025Z,70.80
2018-02-21T03:35:35.986Z,59.70
2018-02-21T03:36:35.977Z,71.90
2018-02-21T03:37:35.964Z,70.00
2018-02-21T03:38:35.992Z,90.10
2018-02-21T03:39:35.942Z,89.90
2018-02-21T03:40:35.934Z,87.50
2018-02-21T03:41:35.922Z,77.30
2018-02-21T03:42:35.968Z,71.60
2018-02-21T03:43:35.900Z,68.30
2018-02-21T03:44:35.887Z,69.30
2018-02-21T03:45:35.875Z,72.30
2018-02-21T03:46:35.903Z,75.10
2018-02-21T03:47:35.854Z,63.10
2018-02-21T03:48:35.897Z,67.30
2018-02-21T03:49:35.854Z,75.30
2018-02-21T03:50:35.818Z,64.30
2018-02-21T03:51:35.809Z,57.50
2018-02-21T03:52:35.798Z,68.80
2018-02-21T03:53:35.826Z,68.50
2018-02-21T03:54:35.776Z,74.00
2018-02-21T03:55:35.763Z,68.00
2018-02-21T03:56:35.753Z,66.50
2018-02-21T03:57:35.744Z,66.60
2018-02-21T03:58:35.797Z,67.10
2018-02-21T03:59:35.725Z,76.60
2018-02-21T04:00:35.708Z,81.40
2018-02-21T04:01:35.695Z,73.10
2018-02-21T04:02:35.686Z,70.10
2018-02-21T04:03:35.715Z,65.70
2018-02-21T04:04:35.662Z,68.10
2018-02-21T04:05:35.654Z,73.10
2018-02-21T04:06:35.644Z,66.40
2018-02-21T04:07:35.636Z,65.10
2018-02-21T04:08:35.657Z,68.20
2018-02-21T04:09:35.608Z,69.80
2018-02-21T04:10:35.596Z,72.10
2018-02-21T04:11:35.584Z,68.00
2018-02-21T04:12:35.575Z,65.10
2018-02-21T04:13:35.607Z,58.00
2018-02-21T04:14:35.557Z,61.60
2018-02-21T04:15:35.552Z,54.90
2018-02-21T04:16:35.526Z,52.60
2018-02-21T04:17:35.518Z,55.80
2018-02-21T04:18:35.564Z,68.90
2018-02-21T04:19:35.496Z,68.50
2018-02-21T04:20:35.487Z,63.90
2018-02-21T04:21:35.517Z,59.90
2018-02-21T04:22:35.506Z,55.90
2018-02-21T04:23:36.309Z,64.00
2018-02-21T04:24:35.456Z,62.00
2018-02-21T04:25:35.430Z,66.60
2018-02-21T04:26:35.418Z,64.80
2018-02-21T04:27:35.446Z,61.60
2018-02-21T04:28:35.398Z,69.20
2018-02-21T04:29:35.385Z,62.10
2018-02-21T04:30:37.118Z,62.60
2018-02-21T04:31:35.360Z,56.90
2018-02-21T04:32:35.389Z,65.60
2018-02-21T04:33:35.339Z,66.20
2018-02-21T04:34:35.403Z,67.50
2018-02-21T04:35:35.318Z,59.50
2018-02-21T04:36:35.307Z,59.60
2018-02-21T04:37:35.355Z,64.10
2018-02-21T04:38:35.284Z,79.30
2018-02-21T04:39:35.270Z,71.30
2018-02-21T04:40:35.263Z,60.20
2018-02-21T04:41:35.292Z,61.20
2018-02-21T04:42:35.281Z,74.80
2018-02-21T04:43:35.231Z,78.10
2018-02-21T04:44:35.219Z,66.10
2018-02-21T04:45:35.205Z,60.00
2018-02-21T04:46:35.197Z,66.90
2018-02-21T04:47:35.225Z,57.60
2018-02-21T04:48:35.170Z,67.00
2018-02-21T04:49:35.160Z,59.90
2018-02-21T04:50:35.148Z,62.90
2018-02-21T04:51:35.141Z,64.50
2018-02-21T04:52:35.187Z,68.70
2018-02-21T04:53:35.116Z,60.90
2018-02-21T04:54:35.107Z,70.40
2018-02-21T04:55:35.091Z,68.90
2018-02-21T04:56:35.139Z,79.70
2018-02-21T04:57:35.071Z,74.70
2018-02-21T04:58:35.060Z,77.20
2018-02-21T04:59:35.049Z,77.20
2018-02-21T05:00:35.064Z,69.90
2018-02-21T05:01:35.066Z,62.90
2018-02-21T05:02:35.051Z,68.10
2018-02-21T05:03:35.000Z,61.20
2018-02-21T05:04:34.989Z,59.90
2018-02-21T05:05:34.979Z,65.30
2018-02-21T05:06:34.972Z,56.30
2018-02-21T05:07:35.000Z,64.80
2018-02-21T05:08:34.942Z,60.60
2018-02-21T05:09:34.935Z,62.60
2018-02-21T05:10:34.926Z,60.40
2018-02-21T05:11:34.908Z,69.40
2018-02-21T05:12:34.939Z,78.40
2018-02-21T05:13:34.922Z,68.20
2018-02-21T05:14:34.876Z,68.10
2018-02-21T05:15:34.866Z,65.40
2018-02-21T05:16:34.893Z,72.20
2018-02-21T05:17:34.880Z,70.30
2018-02-21T05:18:34.831Z,70.60
2018-02-21T05:19:34.819Z,66.90
2018-02-21T05:20:34.806Z,63.30
2018-02-21T05:21:34.804Z,55.80
2018-02-21T05:22:34.842Z,49.80
2018-02-21T05:23:34.772Z,67.00
2018-02-21T05:24:34.767Z,68.20
2018-02-21T05:25:34.795Z,68.20
2018-02-21T05:26:34.739Z,55.50
2018-02-21T05:27:34.765Z,61.80
2018-02-21T05:28:34.719Z,60.10
2018-02-21T05:29:34.705Z,60.00
2018-02-21T05:30:34.758Z,55.80
2018-02-21T05:31:34.682Z,62.60
2018-02-21T05:32:34.710Z,54.80
2018-02-21T05:33:34.662Z,54.40
2018-02-21T05:34:34.646Z,61.90
2018-02-21T05:35:34.638Z,57.60
2018-02-21T05:36:34.649Z,65.70
2018-02-21T05:37:34.700Z,59.30
2018-02-21T05:38:34.603Z,69.30
2018-02-21T05:39:34.590Z,73.90
2018-02-21T05:40:34.579Z,58.70
2018-02-21T05:41:34.562Z,68.20
2018-02-21T05:42:34.594Z,52.00
2018-02-21T05:43:34.542Z,54.50
2018-02-21T05:44:34.534Z,57.70
2018-02-21T05:45:34.522Z,60.10
2018-02-21T05:46:34.508Z,68.20
2018-02-21T05:47:34.554Z,71.00
2018-02-21T05:48:34.484Z,73.70
2018-02-21T05:49:34.476Z,73.30
2018-02-21T05:50:34.502Z,69.50
2018-02-21T05:51:34.452Z,70.70
2018-02-21T05:52:34.443Z,70.30
2018-02-21T05:53:34.431Z,77.10
2018-02-21T05:54:34.457Z,63.20
2018-02-21T05:55:35.053Z,63.50
2018-02-21T05:56:34.395Z,59.60
2018-02-21T05:57:34.382Z,63.00
2018-02-21T05:58:34.371Z,68.20
2018-02-21T05:59:34.410Z,66.40
2018-02-21T06:00:34.351Z,67.40
2018-02-21T06:01:34.341Z,67.30
2018-02-21T06:02:34.325Z,73.70
2018-02-21T06:03:34.311Z,66.20
2018-02-21T06:04:34.342Z,72.50
2018-02-21T06:05:34.293Z,77.20
2018-02-21T06:06:34.279Z,87.80
2018-02-21T06:07:34.266Z,81.50
2018-02-21T06:08:34.812Z,90.20
2018-02-21T06:09:34.285Z,78.30
2018-02-21T06:10:34.234Z,87.40
2018-02-21T06:11:34.222Z,75.80
2018-02-21T06:12:34.212Z,70.90
2018-02-21T06:13:34.202Z,80.60
2018-02-21T06:14:34.227Z,70.30
2018-02-21T06:15:34.180Z,65.60
2018-02-21T06:16:34.168Z,78.20
2018-02-21T06:17:34.156Z,80.00
2018-02-21T06:18:34.184Z,73.30
2018-02-21T06:19:34.189Z,68.80
2018-02-21T06:20:34.122Z,60.40
2018-02-21T06:21:34.107Z,70.60
2018-02-21T06:22:34.099Z,67.50
2018-02-21T06:23:34.085Z,84.90
2018-02-21T06:24:34.113Z,78.30
2018-02-21T06:25:34.102Z,91.50
2018-02-21T06:26:34.053Z,85.90
2018-02-21T06:27:34.040Z,70.40
2018-02-21T06:28:34.030Z,67.80
2018-02-21T06:29:34.019Z,62.00
2018-02-21T06:30:34.066Z,68.80
2018-02-21T06:31:33.999Z,64.80
2018-02-21T06:32:33.984Z,64.00
2018-02-21T06:33:33.973Z,64.00
2018-02-21T06:34:33.966Z,66.20
2018-02-21T06:35:33.994Z,65.80
2018-02-21T06:36:33.943Z,61.10
2018-02-21T06:37:33.933Z,63.40
2018-02-21T06:38:33.920Z,64.60
2018-02-21T06:39:33.958Z,60.60
2018-02-21T06:40:33.899Z,72.00
2018-02-21T06:41:33.889Z,67.60
2018-02-21T06:42:33.876Z,68.80
2018-02-21T06:43:33.866Z,56.60
2018-02-21T06:44:33.854Z,51.00
2018-02-21T06:45:33.889Z,61.60
2018-02-21T06:46:33.835Z,75.00
2018-02-21T06:47:33.822Z,63.80
2018-02-21T06:48:33.812Z,68.20
2018-02-21T06:49:33.801Z,63.60
2018-02-21T06:50:33.849Z,59.00
2018-02-21T06:51:33.780Z,63.30
2018-02-21T06:52:33.769Z,60.60
2018-02-21T06:53:33.760Z,70.10
2018-02-21T06:54:33.837Z,63.70
2018-02-21T06:55:33.736Z,64.40
2018-02-21T06:56:33.767Z,64.70
2018-02-21T06:57:33.718Z,65.30
2018-02-21T06:58:33.705Z,67.00
2018-02-21T06:59:33.697Z,64.70
2018-02-21T07:00:33.688Z,41.60
2018-02-21T07:01:33.717Z,57.80
2018-02-21T07:02:33.666Z,81.80
2018-02-21T07:03:33.655Z,77.00
2018-02-21T07:04:33.643Z,83.00
2018-02-21T07:05:33.636Z,87.70
2018-02-21T07:06:33.666Z,75.50
2018-02-21T07:07:33.612Z,75.80
2018-02-21T07:08:33.602Z,79.20
2018-02-21T07:09:33.594Z,74.70
2018-02-21T07:10:33.582Z,71.10
2018-02-21T07:11:33.611Z,75.40
2018-02-21T07:12:33.565Z,72.40
2018-02-21T07:13:33.553Z,70.10
2018-02-21T07:14:33.544Z,69.80
2018-02-21T07:15:33.555Z,68.20
2018-02-21T07:16:33.569Z,79.20
2018-02-21T07:17:33.515Z,71.00
2018-02-21T07:18:33.537Z,71.60
2018-02-21T07:19:33.497Z,70.00
2018-02-21T07:20:33.487Z,66.60
2018-02-21T07:21:33.522Z,65.00
2018-02-21T07:22:33.466Z,69.00
2018-02-21T07:23:33.460Z,63.90
2018-02-21T07:24:33.447Z,62.60
2018-02-21T07:25:33.445Z,65.90
2018-02-21T07:26:33.468Z,69.20
2018-02-21T07:27:33.418Z,64.30
2018-02-21T07:28:33.411Z,66.00
2018-02-21T07:29:33.401Z,75.80
2018-02-21T07:30:33.391Z,115.00
2018-02-21T07:31:33.422Z,116.10
2018-02-21T07:32:33.373Z,117.10
2018-02-21T07:33:33.367Z,116.20
2018-02-21T07:34:33.359Z,89.70
2018-02-21T07:35:33.349Z,108.00
2018-02-21T07:36:33.385Z,80.70
2018-02-21T07:37:33.333Z,73.30
2018-02-21T07:38:33.323Z,79.00
2018-02-21T07:39:33.312Z,98.00
2018-02-21T07:40:33.300Z,89.20
2018-02-21T07:41:33.333Z,80.00
2018-02-21T07:42:33.286Z,83.00
2018-02-21T07:43:34.024Z,74.00
2018-02-21T07:44:33.272Z,74.70
2018-02-21T07:45:33.262Z,56.30
2018-02-21T07:46:33.292Z,65.20
2018-02-21T07:47:33.244Z,60.80
2018-02-21T07:48:33.229Z,66.30
2018-02-21T07:49:33.223Z,64.30
2018-02-21T07:50:33.216Z,70.00
2018-02-21T07:51:33.244Z,64.80
2018-02-21T07:52:33.197Z,64.60
2018-02-21T07:53:33.336Z,61.70
2018-02-21T07:54:33.188Z,61.70
2018-02-21T07:55:33.173Z,56.50
2018-02-21T07:56:33.206Z,60.20
2018-02-21T07:57:33.157Z,61.00
2018-02-21T07:58:33.146Z,58.20
2018-02-21T07:59:33.154Z,61.40
2018-02-21T08:00:33.135Z,54.70
2018-02-21T08:01:33.173Z,55.80
2018-02-21T08:02:33.114Z,57.80
2018-02-21T08:03:33.106Z,53.70
2018-02-21T08:04:33.100Z,57.00
2018-02-21T08:05:33.092Z,55.50
2018-02-21T08:06:33.104Z,50.50
2018-02-21T08:07:33.115Z,48.90
2018-02-21T08:08:33.067Z,49.70
2018-02-21T08:09:33.057Z,49.10
2018-02-21T08:10:33.052Z,48.70
2018-02-21T08:11:33.045Z,50.50
2018-02-21T08:12:33.078Z,50.80
2018-02-21T08:13:33.029Z,50.40
2018-02-21T08:14:33.022Z,47.40
2018-02-21T08:15:33.019Z,55.10
2018-02-21T08:16:33.005Z,48.10
2018-02-21T08:17:33.053Z,47.20
2018-02-21T08:18:32.992Z,49.90
2018-02-21T08:19:33.032Z,47.00
2018-02-21T08:20:32.981Z,52.30
2018-02-21T08:21:32.970Z,45.10
2018-02-21T08:22:33.011Z,49.30
2018-02-21T08:23:32.950Z,52.20
2018-02-21T08:24:32.948Z,49.50
2018-02-21T08:25:32.939Z,49.90
2018-02-21T08:26:32.932Z,52.10
2018-02-21T08:27:32.962Z,51.80
2018-02-21T08:28:32.916Z,49.40
2018-02-21T08:29:32.909Z,49.00
2018-02-21T08:30:32.902Z,54.40
2018-02-21T08:31:33.400Z,52.80
2018-02-21T08:32:32.935Z,60.30
2018-02-21T08:33:32.881Z,57.60
2018-02-21T08:34:32.874Z,50.20
2018-02-21T08:35:32.864Z,52.50
2018-02-21T08:36:32.862Z,56.40
2018-02-21T08:37:32.894Z,54.60
2018-02-21T08:38:32.844Z,54.00
2018-02-21T08:39:32.837Z,55.50
2018-02-21T08:40:32.829Z,52.30
2018-02-21T08:41:32.828Z,57.70
2018-02-21T08:42:32.867Z,52.90
2018-02-21T08:43:32.816Z,58.30
2018-02-21T08:44:32.802Z,54.10
2018-02-21T08:45:32.795Z,59.50
2018-02-21T08:46:32.788Z,48.10
2018-02-21T08:47:32.779Z,52.50
2018-02-21T08:48:32.812Z,53.80
2018-02-21T08:49:32.768Z,51.90
2018-02-21T08:50:32.757Z,57.30
2018-02-21T08:51:32.753Z,52.60
2018-02-21T08:52:32.805Z,53.40
2018-02-21T08:53:32.779Z,57.40
2018-02-21T08:54:32.733Z,51.30
2018-02-21T08:55:33.398Z,53.00
2018-02-21T08:56:32.718Z,51.10
2018-02-21T08:57:32.748Z,49.30
2018-02-21T08:58:32.707Z,65.80
2018-02-21T08:59:32.694Z,58.70
2018-02-21T09:00:32.689Z,63.10
2018-02-21T09:01:32.683Z,55.40
2018-02-21T09:02:32.732Z,59.90
2018-02-21T09:03:32.727Z,54.20
2018-02-21T09:04:32.663Z,67.90
2018-02-21T09:05:32.657Z,58.90
2018-02-21T09:06:32.676Z,53.80
2018-02-21T09:07:32.643Z,59.30
2018-02-21T09:08:32.694Z,61.10
2018-02-21T09:09:32.628Z,57.00
2018-02-21T09:10:32.626Z,54.30
2018-02-21T09:11:32.617Z,57.30
2018-02-21T09:12:32.612Z,59.20
2018-02-21T09:13:32.660Z,59.80
2018-02-21T09:14:32.599Z,57.00
2018-02-21T09:15:32.591Z,37.60
2018-02-21T09:16:32.594Z,51.40
2018-02-21T09:17:32.580Z,55.80
2018-02-21T09:18:32.613Z,63.50
2018-02-21T09:19:32.604Z,55.80
2018-02-21T09:20:32.559Z,56.80
2018-02-21T09:21:32.570Z,54.60
2018-02-21T09:22:32.547Z,61.80
2018-02-21T09:23:33.380Z,57.30
2018-02-21T09:24:32.572Z,60.80
2018-02-21T09:25:32.526Z,58.00
2018-02-21T09:26:32.518Z,49.10
2018-02-21T09:27:32.517Z,58.90
2018-02-21T09:28:32.507Z,54.40
2018-02-21T09:29:32.540Z,61.30
2018-02-21T09:30:32.496Z,56.90
2018-02-21T09:31:32.489Z,55.60
2018-02-21T09:32:33.012Z,53.60
2018-02-21T09:33:32.474Z,62.90
2018-02-21T09:34:32.522Z,54.10
2018-02-21T09:35:32.462Z,59.40
2018-02-21T09:36:32.455Z,58.00
2018-02-21T09:37:32.447Z,58.60
2018-02-21T09:38:32.440Z,59.50
2018-02-21T09:39:32.492Z,58.90
2018-02-21T09:40:32.427Z,59.40
2018-02-21T09:41:32.423Z,64.50
2018-02-21T09:42:32.418Z,65.50
2018-02-21T09:43:32.410Z,61.80
2018-02-21T09:44:32.457Z,54.30
2018-02-21T09:45:32.402Z,61.70
2018-02-21T09:46:32.391Z,64.80
2018-02-21T09:47:32.384Z,65.80
2018-02-21T09:48:32.385Z,62.00
2018-02-21T09:49:32.376Z,61.00
2018-02-21T09:50:32.406Z,60.50
2018-02-21T09:51:32.365Z,67.70
2018-02-21T09:52:32.360Z,68.20
2018-02-21T09:53:32.350Z,59.20
2018-02-21T09:54:32.560Z,60.80
2018-02-21T09:55:32.962Z,58.20
2018-02-21T09:56:32.336Z,66.50
2018-02-21T09:57:32.331Z,61.70
2018-02-21T09:58:32.326Z,61.50
2018-02-21T09:59:32.357Z,63.40
2018-02-21T10:00:32.313Z,65.20
2018-02-21T10:01:32.307Z,62.70
2018-02-21T10:02:32.302Z,63.50
2018-02-21T10:03:32.297Z,63.00
2018-02-21T10:04:32.366Z,67.60
2018-02-21T10:05:32.285Z,55.30
2018-02-21T10:06:32.279Z,37.50
2018-02-21T10:07:32.407Z,62.00
2018-02-21T10:08:32.269Z,56.50
2018-02-21T10:09:32.306Z,61.40
2018-02-21T10:10:32.342Z,64.30
2018-02-21T10:11:32.256Z,58.90
2018-02-21T10:12:32.278Z,62.20
2018-02-21T10:13:32.267Z,62.30
2018-02-21T10:14:32.282Z,61.60
2018-02-21T10:15:32.235Z,65.80
2018-02-21T10:16:32.229Z,58.50
2018-02-21T10:17:32.228Z,58.20
2018-02-21T10:18:32.242Z,62.60
2018-02-21T10:19:32.286Z,42.60
2018-02-21T10:20:32.218Z,53.80
2018-02-21T10:21:32.212Z,58.20
2018-02-21T10:22:32.203Z,61.70
2018-02-21T10:23:32.201Z,64.80
2018-02-21T10:24:32.273Z,62.00
2018-02-21T10:25:32.228Z,62.80
2018-02-21T10:26:32.250Z,60.70
2018-02-21T10:27:32.204Z,57.20
2018-02-21T10:28:32.187Z,60.20
2018-02-21T10:29:32.241Z,62.20
2018-02-21T10:30:32.209Z,59.70
2018-02-21T10:31:33.252Z,60.50
2018-02-21T10:32:32.272Z,62.60
2018-02-21T10:33:32.172Z,64.80
2018-02-21T10:34:33.109Z,62.20
2018-02-21T10:35:32.167Z,63.80
2018-02-21T10:36:32.181Z,61.30
2018-02-21T10:37:32.179Z,64.50
2018-02-21T10:38:32.251Z,66.60
2018-02-21T10:39:32.213Z,62.60
2018-02-21T10:40:32.151Z,59.30
2018-02-21T10:41:32.150Z,57.20
2018-02-21T10:42:32.147Z,63.70
2018-02-21T10:43:32.193Z,62.20
2018-02-21T10:44:32.202Z,60.80
2018-02-21T10:45:32.140Z,59.20
2018-02-21T10:46:32.138Z,53.90
2018-02-21T10:47:32.138Z,57.30
2018-02-21T10:48:32.189Z,57.80
2018-02-21T10:49:32.196Z,68.40
2018-02-21T10:50:32.134Z,59.90
2018-02-21T10:51:32.140Z,64.00
2018-02-21T10:52:32.135Z,59.30
2018-02-21T10:53:32.130Z,64.20
2018-02-21T10:54:32.187Z,58.80
2018-02-21T10:55:32.139Z,59.80
2018-02-21T10:56:32.151Z,56.30
2018-02-21T10:57:32.124Z,62.70
2018-02-21T10:58:32.123Z,60.00
2018-02-21T10:59:32.161Z,50.60
2018-02-21T11:00:32.121Z,52.70
2018-02-21T11:01:32.123Z,53.90
2018-02-21T11:02:32.120Z,47.40
2018-02-21T11:03:32.123Z,46.00
2018-02-21T11:04:32.165Z,46.40
2018-02-21T11:05:32.128Z,47.40
2018-02-21T11:06:32.128Z,46.30
2018-02-21T11:07:32.136Z,49.00
2018-02-21T11:08:32.135Z,50.60
2018-02-21T11:09:32.178Z,39.50
2018-02-21T11:10:32.141Z,43.00
2018-02-21T11:11:32.144Z,41.50
2018-02-21T11:12:32.152Z,46.00
2018-02-21T11:13:32.157Z,34.00
2018-02-21T11:14:32.203Z,40.30
2018-02-21T11:15:32.166Z,41.40
2018-02-21T11:16:32.170Z,38.40
2018-02-21T11:17:32.174Z,43.10
2018-02-21T11:18:32.182Z,50.80
2018-02-21T11:19:32.240Z,44.00
2018-02-21T11:20:32.185Z,49.20
2018-02-21T11:21:32.187Z,45.40
2018-02-21T11:22:32.229Z,45.20
2018-02-21T11:23:32.229Z,50.50
2018-02-21T11:24:32.233Z,46.70
2018-02-21T11:25:32.202Z,46.40
2018-02-21T11:26:32.199Z,48.90
2018-02-21T11:27:32.201Z,50.20
2018-02-21T11:28:32.204Z,48.50
2018-02-21T11:29:32.242Z,41.30
2018-02-21T11:30:32.214Z,36.90
2018-02-21T11:31:32.214Z,40.20
2018-02-21T11:32:32.215Z,36.80
2018-02-21T11:33:32.260Z,43.80
2018-02-21T11:34:32.227Z,36.30
2018-02-21T11:35:32.228Z,46.70
2018-02-21T11:36:32.327Z,46.50
2018-02-21T11:37:32.237Z,44.10
2018-02-21T11:38:32.282Z,44.10
2018-02-21T11:39:32.245Z,46.30
2018-02-21T11:40:32.250Z,46.20
2018-02-21T11:41:32.252Z,52.30
2018-02-21T11:42:32.310Z,43.50
2018-02-21T11:43:32.319Z,46.40
2018-02-21T11:44:32.266Z,43.30
2018-02-21T11:45:32.270Z,38.00
2018-02-21T11:46:32.274Z,32.00
2018-02-21T11:47:32.315Z,41.10
2018-02-21T11:48:33.177Z,37.60
2018-02-21T11:49:32.282Z,34.90
2018-02-21T11:50:32.331Z,33.20
2018-02-21T11:51:32.288Z,31.90
2018-02-21T11:52:32.292Z,37.00
2018-02-21T11:53:32.354Z,41.00
2018-02-21T11:54:32.302Z,34.50
2018-02-21T11:55:32.311Z,37.90
2018-02-21T11:56:32.316Z,29.10
2018-02-21T11:57:32.358Z,33.70
2018-02-21T11:58:32.365Z,42.50
2018-02-21T11:59:32.335Z,35.10
2018-02-21T12:00:33.262Z,37.30
2018-02-21T12:01:32.349Z,37.30
2018-02-21T12:02:32.350Z,37.10
2018-02-21T12:03:32.407Z,31.70
2018-02-21T12:04:32.381Z,30.60
2018-02-21T12:05:32.369Z,36.90
2018-02-21T12:06:32.378Z,33.50
2018-02-21T12:07:32.383Z,40.70
2018-02-21T12:08:32.449Z,37.10
2018-02-21T12:09:32.395Z,30.80
2018-02-21T12:10:32.400Z,32.30
2018-02-21T12:11:32.408Z,35.80
2018-02-21T12:12:32.503Z,37.20
2018-02-21T12:13:32.476Z,38.10
2018-02-21T12:14:32.428Z,38.00
2018-02-21T12:15:32.432Z,41.00
2018-02-21T12:16:32.440Z,37.40
2018-02-21T12:17:32.445Z,35.70
2018-02-21T12:18:32.515Z,39.00
2018-02-21T12:19:32.457Z,26.60
2018-02-21T12:20:32.464Z,30.20
2018-02-21T12:21:32.470Z,32.60
2018-02-21T12:22:32.475Z,34.30
2018-02-21T12:23:32.518Z,34.60
2018-02-21T12:24:32.492Z,37.20
2018-02-21T12:25:32.495Z,37.80
2018-02-21T12:26:32.501Z,37.30
2018-02-21T12:27:32.508Z,39.90
2018-02-21T12:28:32.921Z,30.70
2018-02-21T12:29:32.542Z,31.20
2018-02-21T12:30:32.526Z,39.70
2018-02-21T12:31:32.542Z,40.00
2018-02-21T12:32:32.542Z,36.10
2018-02-21T12:33:32.605Z,37.00
2018-02-21T12:34:32.558Z,30.00
2018-02-21T12:35:32.558Z,38.60
2018-02-21T12:36:32.567Z,37.60
2018-02-21T12:37:32.574Z,39.80
2018-02-21T12:38:32.615Z,37.60
2018-02-21T12:39:32.592Z,35.20
2018-02-21T12:40:32.598Z,31.60
2018-02-21T12:41:32.601Z,31.70
2018-02-21T12:42:32.607Z,30.50
2018-02-21T12:43:32.654Z,24.90
2018-02-21T12:44:32.621Z,33.80
2018-02-21T12:45:32.631Z,31.80
2018-02-21T12:46:32.635Z,30.40
2018-02-21T12:47:32.639Z,34.90
2018-02-21T12:48:32.684Z,33.90
2018-02-21T12:49:32.654Z,32.90
2018-02-21T12:50:32.661Z,33.30